sensor_id;sensor_type;location;lat;lon;timestamp;P1;durP1;ratioP1;P2;durP2;ratioP2
31262;SDS011;17892;52.080;9.006;2023-07-20T00:00:53;2.95;;;1.20;;
31262;SDS011;17892;52.080;9.006;2023-07-20T00:03:19;2.45;;;1.30;;
31262;SDS011;17892;52.080;9.006;2023-07-20T00:05:48;1.95;;;1.20;;
31262;SDS011;17892;52.080;9.006;2023-07-20T00:08:15;1.70;;;0.80;;
31262;SDS011;17892;52.080;9.006;2023-07-20T00:10:42;3.65;;;0.93;;
31262;SDS011;17892;52.080;9.006;2023-07-20T00:13:08;2.58;;;0.82;;
31262;SDS011;17892;52.080;9.006;2023-07-20T00:15:35;1.85;;;0.93;;
31262;SDS011;17892;52.080;9.006;2023-07-20T00:18:02;3.83;;;1.02;;
31262;SDS011;17892;52.080;9.006;2023-07-20T00:20:29;1.50;;;0.70;;
31262;SDS011;17892;52.080;9.006;2023-07-20T00:22:54;2.80;;;0.60;;
31262;SDS011;17892;52.080;9.006;2023-07-20T00:25:22;3.08;;;0.90;;
31262;SDS011;17892;52.080;9.006;2023-07-20T00:27:49;2.47;;;0.90;;
31262;SDS011;17892;52.080;9.006;2023-07-20T00:30:14;2.10;;;0.90;;
31262;SDS011;17892;52.080;9.006;2023-07-20T00:32:41;2.97;;;0.70;;
31262;SDS011;17892;52.080;9.006;2023-07-20T00:35:08;2.67;;;0.52;;
31262;SDS011;17892;52.080;9.006;2023-07-20T00:37:35;2.60;;;0.90;;
31262;SDS011;17892;52.080;9.006;2023-07-20T00:40:02;1.83;;;0.65;;
31262;SDS011;17892;52.080;9.006;2023-07-20T00:42:32;1.60;;;0.70;;
31262;SDS011;17892;52.080;9.006;2023-07-20T00:44:58;2.88;;;1.00;;
31262;SDS011;17892;52.080;9.006;2023-07-20T00:47:24;2.42;;;0.95;;
31262;SDS011;17892;52.080;9.006;2023-07-20T00:49:51;2.00;;;0.90;;
31262;SDS011;17892;52.080;9.006;2023-07-20T00:52:17;2.60;;;0.90;;
31262;SDS011;17892;52.080;9.006;2023-07-20T00:54:46;2.83;;;1.33;;
31262;SDS011;17892;52.080;9.006;2023-07-20T00:57:14;2.70;;;0.90;;
31262;SDS011;17892;52.080;9.006;2023-07-20T00:59:40;2.38;;;0.93;;
31262;SDS011;17892;52.080;9.006;2023-07-20T01:02:07;1.13;;;0.63;;
31262;SDS011;17892;52.080;9.006;2023-07-20T01:04:33;1.95;;;1.00;;
31262;SDS011;17892;52.080;9.006;2023-07-20T01:07:10;2.22;;;1.20;;
31262;SDS011;17892;52.080;9.006;2023-07-20T01:09:52;4.20;;;0.82;;
31262;SDS011;17892;52.080;9.006;2023-07-20T01:12:25;3.15;;;0.88;;
31262;SDS011;17892;52.080;9.006;2023-07-20T01:14:57;3.63;;;0.82;;
31262;SDS011;17892;52.080;9.006;2023-07-20T01:17:22;7.18;;;0.82;;
31262;SDS011;17892;52.080;9.006;2023-07-20T01:19:49;3.33;;;0.85;;
31262;SDS011;17892;52.080;9.006;2023-07-20T01:22:27;6.22;;;1.00;;
31262;SDS011;17892;52.080;9.006;2023-07-20T01:29:02;4.03;;;0.90;;
31262;SDS011;17892;52.080;9.006;2023-07-20T01:31:43;5.57;;;0.80;;
31262;SDS011;17892;52.080;9.006;2023-07-20T01:34:10;7.05;;;1.30;;
31262;SDS011;17892;52.080;9.006;2023-07-20T01:36:39;7.07;;;2.05;;
31262;SDS011;17892;52.080;9.006;2023-07-20T01:39:05;7.78;;;1.20;;
31262;SDS011;17892;52.080;9.006;2023-07-20T01:41:33;8.20;;;1.75;;
31262;SDS011;17892;52.080;9.006;2023-07-20T01:43:59;7.07;;;1.48;;
31262;SDS011;17892;52.080;9.006;2023-07-20T01:46:25;9.60;;;1.52;;
31262;SDS011;17892;52.080;9.006;2023-07-20T01:48:51;4.90;;;1.58;;
31262;SDS011;17892;52.080;9.006;2023-07-20T01:51:19;6.88;;;1.38;;
31262;SDS011;17892;52.080;9.006;2023-07-20T01:53:45;3.85;;;1.33;;
31262;SDS011;17892;52.080;9.006;2023-07-20T01:56:11;5.80;;;1.15;;
31262;SDS011;17892;52.080;9.006;2023-07-20T01:58:37;3.33;;;1.33;;
31262;SDS011;17892;52.080;9.006;2023-07-20T02:01:03;7.22;;;1.50;;
31262;SDS011;17892;52.080;9.006;2023-07-20T02:03:29;3.25;;;1.20;;
31262;SDS011;17892;52.080;9.006;2023-07-20T02:05:55;3.17;;;1.20;;
31262;SDS011;17892;52.080;9.006;2023-07-20T02:08:22;5.38;;;1.15;;
31262;SDS011;17892;52.080;9.006;2023-07-20T02:10:48;6.15;;;1.10;;
31262;SDS011;17892;52.080;9.006;2023-07-20T02:13:14;4.10;;;1.15;;
31262;SDS011;17892;52.080;9.006;2023-07-20T02:15:41;7.60;;;2.03;;
31262;SDS011;17892;52.080;9.006;2023-07-20T02:18:07;4.07;;;0.98;;
31262;SDS011;17892;52.080;9.006;2023-07-20T02:20:34;4.32;;;1.27;;
31262;SDS011;17892;52.080;9.006;2023-07-20T02:23:00;4.13;;;1.20;;
31262;SDS011;17892;52.080;9.006;2023-07-20T02:25:26;4.20;;;1.85;;
31262;SDS011;17892;52.080;9.006;2023-07-20T02:27:52;4.43;;;1.65;;
31262;SDS011;17892;52.080;9.006;2023-07-20T02:30:18;5.13;;;1.55;;
31262;SDS011;17892;52.080;9.006;2023-07-20T02:32:43;3.90;;;1.25;;
31262;SDS011;17892;52.080;9.006;2023-07-20T02:35:10;4.03;;;0.90;;
31262;SDS011;17892;52.080;9.006;2023-07-20T02:37:37;3.13;;;1.40;;
31262;SDS011;17892;52.080;9.006;2023-07-20T02:40:02;1.77;;;0.90;;
31262;SDS011;17892;52.080;9.006;2023-07-20T02:42:29;2.50;;;1.20;;
31262;SDS011;17892;52.080;9.006;2023-07-20T02:44:56;4.47;;;1.27;;
31262;SDS011;17892;52.080;9.006;2023-07-20T02:47:21;2.67;;;1.02;;
31262;SDS011;17892;52.080;9.006;2023-07-20T02:49:47;5.32;;;1.40;;
31262;SDS011;17892;52.080;9.006;2023-07-20T02:52:13;5.43;;;1.40;;
31262;SDS011;17892;52.080;9.006;2023-07-20T02:54:39;2.88;;;1.60;;
31262;SDS011;17892;52.080;9.006;2023-07-20T02:57:05;6.55;;;1.50;;
31262;SDS011;17892;52.080;9.006;2023-07-20T02:59:31;4.95;;;1.38;;
31262;SDS011;17892;52.080;9.006;2023-07-20T03:01:56;3.92;;;1.60;;
31262;SDS011;17892;52.080;9.006;2023-07-20T03:04:22;3.22;;;1.30;;
31262;SDS011;17892;52.080;9.006;2023-07-20T03:06:51;3.03;;;1.00;;
31262;SDS011;17892;52.080;9.006;2023-07-20T03:09:16;3.83;;;1.10;;
31262;SDS011;17892;52.080;9.006;2023-07-20T03:11:42;3.72;;;1.35;;
31262;SDS011;17892;52.080;9.006;2023-07-20T03:14:08;5.60;;;2.08;;
31262;SDS011;17892;52.080;9.006;2023-07-20T03:16:35;4.05;;;1.00;;
31262;SDS011;17892;52.080;9.006;2023-07-20T03:19:01;4.22;;;1.48;;
31262;SDS011;17892;52.080;9.006;2023-07-20T03:21:28;3.13;;;1.38;;
31262;SDS011;17892;52.080;9.006;2023-07-20T03:23:54;6.60;;;1.48;;
31262;SDS011;17892;52.080;9.006;2023-07-20T03:26:19;3.88;;;1.20;;
31262;SDS011;17892;52.080;9.006;2023-07-20T03:28:45;3.92;;;1.60;;
31262;SDS011;17892;52.080;9.006;2023-07-20T03:31:11;4.22;;;1.80;;
31262;SDS011;17892;52.080;9.006;2023-07-20T03:33:37;5.70;;;1.73;;
31262;SDS011;17892;52.080;9.006;2023-07-20T03:36:02;3.95;;;1.70;;
31262;SDS011;17892;52.080;9.006;2023-07-20T03:38:29;6.30;;;2.08;;
31262;SDS011;17892;52.080;9.006;2023-07-20T03:40:55;2.30;;;1.20;;
31262;SDS011;17892;52.080;9.006;2023-07-20T03:43:23;3.33;;;1.42;;
31262;SDS011;17892;52.080;9.006;2023-07-20T03:45:51;3.05;;;1.50;;
31262;SDS011;17892;52.080;9.006;2023-07-20T03:48:18;2.30;;;1.00;;
31262;SDS011;17892;52.080;9.006;2023-07-20T03:50:49;2.47;;;1.20;;
31262;SDS011;17892;52.080;9.006;2023-07-20T03:53:16;2.38;;;1.30;;
31262;SDS011;17892;52.080;9.006;2023-07-20T03:55:46;2.40;;;1.30;;
31262;SDS011;17892;52.080;9.006;2023-07-20T03:58:13;2.58;;;1.08;;
31262;SDS011;17892;52.080;9.006;2023-07-20T04:00:42;2.20;;;1.05;;
31262;SDS011;17892;52.080;9.006;2023-07-20T04:03:13;2.05;;;1.17;;
31262;SDS011;17892;52.080;9.006;2023-07-20T04:05:39;1.83;;;0.90;;
31262;SDS011;17892;52.080;9.006;2023-07-20T04:08:05;2.20;;;1.13;;
31262;SDS011;17892;52.080;9.006;2023-07-20T04:10:30;1.88;;;1.10;;
31262;SDS011;17892;52.080;9.006;2023-07-20T04:12:56;2.03;;;1.00;;
31262;SDS011;17892;52.080;9.006;2023-07-20T04:15:22;1.92;;;0.95;;
31262;SDS011;17892;52.080;9.006;2023-07-20T04:17:48;2.35;;;1.13;;
31262;SDS011;17892;52.080;9.006;2023-07-20T04:20:14;2.22;;;1.48;;
31262;SDS011;17892;52.080;9.006;2023-07-20T04:22:39;2.22;;;1.10;;
31262;SDS011;17892;52.080;9.006;2023-07-20T04:25:05;1.92;;;1.00;;
31262;SDS011;17892;52.080;9.006;2023-07-20T04:27:31;1.80;;;0.82;;
31262;SDS011;17892;52.080;9.006;2023-07-20T04:29:58;2.33;;;1.40;;
31262;SDS011;17892;52.080;9.006;2023-07-20T04:32:27;2.35;;;1.30;;
31262;SDS011;17892;52.080;9.006;2023-07-20T04:34:53;2.50;;;1.35;;
31262;SDS011;17892;52.080;9.006;2023-07-20T04:37:18;2.85;;;1.40;;
31262;SDS011;17892;52.080;9.006;2023-07-20T04:39:44;3.40;;;1.42;;
31262;SDS011;17892;52.080;9.006;2023-07-20T04:42:10;2.53;;;1.40;;
31262;SDS011;17892;52.080;9.006;2023-07-20T04:44:36;2.80;;;1.60;;
31262;SDS011;17892;52.080;9.006;2023-07-20T04:47:02;4.10;;;1.70;;
31262;SDS011;17892;52.080;9.006;2023-07-20T04:49:28;3.13;;;1.48;;
31262;SDS011;17892;52.080;9.006;2023-07-20T04:51:54;3.20;;;1.90;;
31262;SDS011;17892;52.080;9.006;2023-07-20T04:54:19;4.07;;;2.00;;
31262;SDS011;17892;52.080;9.006;2023-07-20T04:56:45;3.65;;;2.20;;
31262;SDS011;17892;52.080;9.006;2023-07-20T04:59:11;3.88;;;2.65;;
31262;SDS011;17892;52.080;9.006;2023-07-20T05:01:37;4.45;;;2.40;;
31262;SDS011;17892;52.080;9.006;2023-07-20T05:04:02;2.88;;;1.67;;
31262;SDS011;17892;52.080;9.006;2023-07-20T05:06:29;2.80;;;1.77;;
31262;SDS011;17892;52.080;9.006;2023-07-20T05:08:54;3.30;;;1.73;;
31262;SDS011;17892;52.080;9.006;2023-07-20T05:11:20;2.85;;;1.75;;
31262;SDS011;17892;52.080;9.006;2023-07-20T05:13:46;3.25;;;1.52;;
31262;SDS011;17892;52.080;9.006;2023-07-20T05:16:12;2.75;;;1.67;;
31262;SDS011;17892;52.080;9.006;2023-07-20T05:18:38;3.30;;;1.25;;
31262;SDS011;17892;52.080;9.006;2023-07-20T05:21:05;2.22;;;1.23;;
31262;SDS011;17892;52.080;9.006;2023-07-20T05:23:31;2.60;;;1.63;;
31262;SDS011;17892;52.080;9.006;2023-07-20T05:25:57;2.78;;;1.30;;
31262;SDS011;17892;52.080;9.006;2023-07-20T05:28:24;2.35;;;1.27;;
31262;SDS011;17892;52.080;9.006;2023-07-20T05:30:51;2.45;;;1.40;;
31262;SDS011;17892;52.080;9.006;2023-07-20T05:33:18;2.47;;;1.45;;
31262;SDS011;17892;52.080;9.006;2023-07-20T05:35:45;3.30;;;1.73;;
31262;SDS011;17892;52.080;9.006;2023-07-20T05:38:11;2.85;;;1.58;;
31262;SDS011;17892;52.080;9.006;2023-07-20T05:40:39;3.72;;;1.85;;
31262;SDS011;17892;52.080;9.006;2023-07-20T05:43:10;2.80;;;1.48;;
31262;SDS011;17892;52.080;9.006;2023-07-20T05:45:36;2.55;;;1.20;;
31262;SDS011;17892;52.080;9.006;2023-07-20T05:48:02;2.08;;;1.15;;
31262;SDS011;17892;52.080;9.006;2023-07-20T05:50:29;3.35;;;1.50;;
31262;SDS011;17892;52.080;9.006;2023-07-20T05:52:55;2.38;;;1.10;;
31262;SDS011;17892;52.080;9.006;2023-07-20T05:55:20;2.22;;;1.30;;
31262;SDS011;17892;52.080;9.006;2023-07-20T05:57:46;4.25;;;1.45;;
31262;SDS011;17892;52.080;9.006;2023-07-20T06:00:13;3.28;;;1.58;;
31262;SDS011;17892;52.080;9.006;2023-07-20T06:02:40;2.75;;;1.40;;
31262;SDS011;17892;52.080;9.006;2023-07-20T06:05:06;2.42;;;1.40;;
31262;SDS011;17892;52.080;9.006;2023-07-20T06:07:38;2.00;;;1.10;;
31262;SDS011;17892;52.080;9.006;2023-07-20T06:10:05;2.47;;;1.38;;
31262;SDS011;17892;52.080;9.006;2023-07-20T06:12:31;3.53;;;1.85;;
31262;SDS011;17892;52.080;9.006;2023-07-20T06:15:01;2.75;;;1.67;;
31262;SDS011;17892;52.080;9.006;2023-07-20T06:17:29;2.60;;;1.40;;
31262;SDS011;17892;52.080;9.006;2023-07-20T06:19:55;2.80;;;1.75;;
31262;SDS011;17892;52.080;9.006;2023-07-20T06:22:21;3.42;;;1.48;;
31262;SDS011;17892;52.080;9.006;2023-07-20T06:24:47;2.75;;;1.63;;
31262;SDS011;17892;52.080;9.006;2023-07-20T06:27:13;2.92;;;1.80;;
31262;SDS011;17892;52.080;9.006;2023-07-20T06:29:39;2.70;;;1.60;;
31262;SDS011;17892;52.080;9.006;2023-07-20T06:32:05;2.60;;;1.60;;
31262;SDS011;17892;52.080;9.006;2023-07-20T06:34:32;2.58;;;1.58;;
31262;SDS011;17892;52.080;9.006;2023-07-20T06:37:02;3.05;;;1.33;;
31262;SDS011;17892;52.080;9.006;2023-07-20T06:39:29;3.88;;;1.70;;
31262;SDS011;17892;52.080;9.006;2023-07-20T06:41:55;2.78;;;1.75;;
31262;SDS011;17892;52.080;9.006;2023-07-20T06:44:21;2.95;;;1.30;;
31262;SDS011;17892;52.080;9.006;2023-07-20T06:46:47;1.88;;;1.05;;
31262;SDS011;17892;52.080;9.006;2023-07-20T06:49:23;2.17;;;1.20;;
31262;SDS011;17892;52.080;9.006;2023-07-20T06:51:53;1.70;;;0.95;;
31262;SDS011;17892;52.080;9.006;2023-07-20T06:54:20;2.55;;;0.85;;
31262;SDS011;17892;52.080;9.006;2023-07-20T06:56:46;1.73;;;0.90;;
31262;SDS011;17892;52.080;9.006;2023-07-20T06:59:12;2.28;;;1.02;;
31262;SDS011;17892;52.080;9.006;2023-07-20T07:01:38;2.28;;;1.00;;
31262;SDS011;17892;52.080;9.006;2023-07-20T07:04:04;2.03;;;1.10;;
31262;SDS011;17892;52.080;9.006;2023-07-20T07:06:30;2.30;;;1.10;;
31262;SDS011;17892;52.080;9.006;2023-07-20T07:08:56;2.20;;;1.05;;
31262;SDS011;17892;52.080;9.006;2023-07-20T07:11:22;1.80;;;0.70;;
31262;SDS011;17892;52.080;9.006;2023-07-20T07:13:48;1.27;;;0.88;;
31262;SDS011;17892;52.080;9.006;2023-07-20T07:16:16;1.88;;;0.80;;
31262;SDS011;17892;52.080;9.006;2023-07-20T07:18:44;1.35;;;0.70;;
31262;SDS011;17892;52.080;9.006;2023-07-20T07:21:10;1.88;;;0.90;;
31262;SDS011;17892;52.080;9.006;2023-07-20T07:23:37;2.30;;;0.77;;
31262;SDS011;17892;52.080;9.006;2023-07-20T07:26:04;1.30;;;0.80;;
31262;SDS011;17892;52.080;9.006;2023-07-20T07:28:30;1.27;;;0.57;;
31262;SDS011;17892;52.080;9.006;2023-07-20T07:30:56;1.40;;;0.70;;
31262;SDS011;17892;52.080;9.006;2023-07-20T07:33:22;1.15;;;0.60;;
31262;SDS011;17892;52.080;9.006;2023-07-20T07:35:49;1.65;;;0.63;;
31262;SDS011;17892;52.080;9.006;2023-07-20T07:38:17;1.52;;;0.70;;
31262;SDS011;17892;52.080;9.006;2023-07-20T07:40:43;1.58;;;0.55;;
31262;SDS011;17892;52.080;9.006;2023-07-20T07:43:09;1.70;;;0.80;;
31262;SDS011;17892;52.080;9.006;2023-07-20T07:45:35;1.25;;;0.65;;
31262;SDS011;17892;52.080;9.006;2023-07-20T07:48:04;1.80;;;0.70;;
31262;SDS011;17892;52.080;9.006;2023-07-20T07:50:31;1.88;;;0.68;;
31262;SDS011;17892;52.080;9.006;2023-07-20T07:52:57;1.95;;;0.80;;
31262;SDS011;17892;52.080;9.006;2023-07-20T07:55:23;2.03;;;0.75;;
31262;SDS011;17892;52.080;9.006;2023-07-20T07:57:51;1.20;;;0.60;;
31262;SDS011;17892;52.080;9.006;2023-07-20T08:00:17;2.58;;;0.90;;
31262;SDS011;17892;52.080;9.006;2023-07-20T08:02:44;0.93;;;0.50;;
31262;SDS011;17892;52.080;9.006;2023-07-20T08:05:13;1.15;;;0.60;;
31262;SDS011;17892;52.080;9.006;2023-07-20T08:07:39;1.17;;;0.52;;
31262;SDS011;17892;52.080;9.006;2023-07-20T08:10:05;1.65;;;0.70;;
31262;SDS011;17892;52.080;9.006;2023-07-20T08:12:31;1.10;;;0.60;;
31262;SDS011;17892;52.080;9.006;2023-07-20T08:14:57;2.85;;;0.70;;
31262;SDS011;17892;52.080;9.006;2023-07-20T08:17:23;1.20;;;0.50;;
31262;SDS011;17892;52.080;9.006;2023-07-20T08:19:49;2.67;;;0.70;;
31262;SDS011;17892;52.080;9.006;2023-07-20T08:22:15;0.57;;;0.35;;
31262;SDS011;17892;52.080;9.006;2023-07-20T08:24:41;0.63;;;0.45;;
31262;SDS011;17892;52.080;9.006;2023-07-20T08:27:08;1.52;;;0.60;;
31262;SDS011;17892;52.080;9.006;2023-07-20T08:29:35;0.73;;;0.40;;
31262;SDS011;17892;52.080;9.006;2023-07-20T08:32:01;2.13;;;0.60;;
31262;SDS011;17892;52.080;9.006;2023-07-20T08:34:29;1.65;;;0.57;;
31262;SDS011;17892;52.080;9.006;2023-07-20T08:36:55;0.65;;;0.35;;
31262;SDS011;17892;52.080;9.006;2023-07-20T08:39:21;1.13;;;0.40;;
31262;SDS011;17892;52.080;9.006;2023-07-20T08:41:48;1.00;;;0.32;;
31262;SDS011;17892;52.080;9.006;2023-07-20T08:44:14;0.85;;;0.40;;
31262;SDS011;17892;52.080;9.006;2023-07-20T08:46:40;0.47;;;0.20;;
31262;SDS011;17892;52.080;9.006;2023-07-20T08:49:07;0.73;;;0.40;;
31262;SDS011;17892;52.080;9.006;2023-07-20T08:51:33;0.82;;;0.43;;
31262;SDS011;17892;52.080;9.006;2023-07-20T08:54:01;1.42;;;0.43;;
31262;SDS011;17892;52.080;9.006;2023-07-20T08:56:27;2.25;;;0.40;;
31262;SDS011;17892;52.080;9.006;2023-07-20T08:58:54;1.00;;;0.30;;
31262;SDS011;17892;52.080;9.006;2023-07-20T09:01:21;0.95;;;0.40;;
31262;SDS011;17892;52.080;9.006;2023-07-20T09:03:47;1.20;;;0.40;;
31262;SDS011;17892;52.080;9.006;2023-07-20T09:06:14;1.35;;;0.50;;
31262;SDS011;17892;52.080;9.006;2023-07-20T09:08:41;1.10;;;0.50;;
31262;SDS011;17892;52.080;9.006;2023-07-20T09:11:07;0.73;;;0.38;;
31262;SDS011;17892;52.080;9.006;2023-07-20T09:13:40;0.60;;;0.40;;
31262;SDS011;17892;52.080;9.006;2023-07-20T09:16:06;1.40;;;0.50;;
31262;SDS011;17892;52.080;9.006;2023-07-20T09:18:32;0.82;;;0.50;;
31262;SDS011;17892;52.080;9.006;2023-07-20T09:21:03;1.70;;;0.40;;
31262;SDS011;17892;52.080;9.006;2023-07-20T09:23:34;1.10;;;0.40;;
31262;SDS011;17892;52.080;9.006;2023-07-20T09:26:11;0.88;;;0.40;;
31262;SDS011;17892;52.080;9.006;2023-07-20T09:28:42;0.55;;;0.40;;
31262;SDS011;17892;52.080;9.006;2023-07-20T09:31:19;1.52;;;0.50;;
31262;SDS011;17892;52.080;9.006;2023-07-20T09:33:47;0.95;;;0.60;;
31262;SDS011;17892;52.080;9.006;2023-07-20T09:36:14;0.75;;;0.35;;
31262;SDS011;17892;52.080;9.006;2023-07-20T09:38:41;1.10;;;0.40;;
31262;SDS011;17892;52.080;9.006;2023-07-20T09:41:08;2.25;;;0.40;;
31262;SDS011;17892;52.080;9.006;2023-07-20T09:43:39;0.98;;;0.30;;
31262;SDS011;17892;52.080;9.006;2023-07-20T09:46:05;2.20;;;0.47;;
31262;SDS011;17892;52.080;9.006;2023-07-20T09:48:31;1.55;;;0.50;;
31262;SDS011;17892;52.080;9.006;2023-07-20T09:50:57;1.23;;;0.50;;
31262;SDS011;17892;52.080;9.006;2023-07-20T09:53:24;1.80;;;0.43;;
31262;SDS011;17892;52.080;9.006;2023-07-20T09:55:51;0.90;;;0.35;;
31262;SDS011;17892;52.080;9.006;2023-07-20T09:58:19;1.55;;;0.40;;
31262;SDS011;17892;52.080;9.006;2023-07-20T10:00:45;1.35;;;0.50;;
31262;SDS011;17892;52.080;9.006;2023-07-20T10:03:19;0.98;;;0.40;;
31262;SDS011;17892;52.080;9.006;2023-07-20T10:05:47;0.68;;;0.25;;
31262;SDS011;17892;52.080;9.006;2023-07-20T10:08:24;0.75;;;0.45;;
31262;SDS011;17892;52.080;9.006;2023-07-20T10:13:25;0.47;;;0.30;;
31262;SDS011;17892;52.080;9.006;2023-07-20T10:16:01;0.50;;;0.30;;
31262;SDS011;17892;52.080;9.006;2023-07-20T10:18:34;0.70;;;0.40;;
31262;SDS011;17892;52.080;9.006;2023-07-20T10:21:10;0.45;;;0.22;;
31262;SDS011;17892;52.080;9.006;2023-07-20T10:23:36;2.15;;;0.40;;
31262;SDS011;17892;52.080;9.006;2023-07-20T10:26:03;1.08;;;0.30;;
31262;SDS011;17892;52.080;9.006;2023-07-20T10:28:29;1.13;;;0.30;;
31262;SDS011;17892;52.080;9.006;2023-07-20T10:30:55;1.38;;;0.40;;
31262;SDS011;17892;52.080;9.006;2023-07-20T10:33:20;1.10;;;0.32;;
31262;SDS011;17892;52.080;9.006;2023-07-20T10:35:54;1.10;;;0.47;;
31262;SDS011;17892;52.080;9.006;2023-07-20T10:41:20;1.05;;;0.30;;
31262;SDS011;17892;52.080;9.006;2023-07-20T10:44:07;0.50;;;0.30;;
31262;SDS011;17892;52.080;9.006;2023-07-20T10:46:36;0.88;;;0.30;;
31262;SDS011;17892;52.080;9.006;2023-07-20T10:49:11;1.10;;;0.40;;
31262;SDS011;17892;52.080;9.006;2023-07-20T10:59:18;2.33;;;0.38;;
31262;SDS011;17892;52.080;9.006;2023-07-20T11:01:56;0.60;;;0.30;;
31262;SDS011;17892;52.080;9.006;2023-07-20T11:05:01;0.30;;;0.30;;
31262;SDS011;17892;52.080;9.006;2023-07-20T11:07:36;0.70;;;0.25;;
31262;SDS011;17892;52.080;9.006;2023-07-20T11:10:13;0.70;;;0.40;;
31262;SDS011;17892;52.080;9.006;2023-07-20T11:12:40;0.50;;;0.20;;
31262;SDS011;17892;52.080;9.006;2023-07-20T11:15:06;1.30;;;0.40;;
31262;SDS011;17892;52.080;9.006;2023-07-20T11:17:32;0.77;;;0.22;;
31262;SDS011;17892;52.080;9.006;2023-07-20T11:19:58;1.20;;;0.50;;
31262;SDS011;17892;52.080;9.006;2023-07-20T11:22:26;0.63;;;0.30;;
31262;SDS011;17892;52.080;9.006;2023-07-20T11:24:55;0.60;;;0.32;;
31262;SDS011;17892;52.080;9.006;2023-07-20T11:27:22;0.90;;;0.40;;
31262;SDS011;17892;52.080;9.006;2023-07-20T11:29:48;0.77;;;0.40;;
31262;SDS011;17892;52.080;9.006;2023-07-20T11:32:20;0.40;;;0.30;;
31262;SDS011;17892;52.080;9.006;2023-07-20T11:34:47;0.98;;;0.40;;
31262;SDS011;17892;52.080;9.006;2023-07-20T11:37:14;0.38;;;0.30;;
31262;SDS011;17892;52.080;9.006;2023-07-20T11:39:40;0.45;;;0.30;;
31262;SDS011;17892;52.080;9.006;2023-07-20T11:42:06;0.80;;;0.40;;
31262;SDS011;17892;52.080;9.006;2023-07-20T11:44:34;0.50;;;0.30;;
31262;SDS011;17892;52.080;9.006;2023-07-20T11:47:10;1.23;;;0.50;;
31262;SDS011;17892;52.080;9.006;2023-07-20T11:49:43;1.00;;;0.45;;
31262;SDS011;17892;52.080;9.006;2023-07-20T11:52:11;1.00;;;0.43;;
31262;SDS011;17892;52.080;9.006;2023-07-20T11:54:40;1.60;;;0.38;;
31262;SDS011;17892;52.080;9.006;2023-07-20T11:57:15;1.05;;;0.50;;
31262;SDS011;17892;52.080;9.006;2023-07-20T11:59:57;0.77;;;0.50;;
31262;SDS011;17892;52.080;9.006;2023-07-20T12:02:29;1.27;;;0.60;;
31262;SDS011;17892;52.080;9.006;2023-07-20T12:04:56;0.95;;;0.50;;
31262;SDS011;17892;52.080;9.006;2023-07-20T12:07:22;1.02;;;0.40;;
31262;SDS011;17892;52.080;9.006;2023-07-20T12:10:03;0.98;;;0.50;;
31262;SDS011;17892;52.080;9.006;2023-07-20T12:12:31;0.68;;;0.45;;
31262;SDS011;17892;52.080;9.006;2023-07-20T12:15:13;1.00;;;0.40;;
31262;SDS011;17892;52.080;9.006;2023-07-20T12:17:46;1.40;;;0.50;;
31262;SDS011;17892;52.080;9.006;2023-07-20T12:20:26;0.80;;;0.40;;
31262;SDS011;17892;52.080;9.006;2023-07-20T12:22:52;0.70;;;0.32;;
31262;SDS011;17892;52.080;9.006;2023-07-20T12:25:21;1.08;;;0.43;;
31262;SDS011;17892;52.080;9.006;2023-07-20T12:27:47;1.20;;;0.40;;
31262;SDS011;17892;52.080;9.006;2023-07-20T12:30:14;0.80;;;0.40;;
31262;SDS011;17892;52.080;9.006;2023-07-20T12:32:40;1.08;;;0.50;;
31262;SDS011;17892;52.080;9.006;2023-07-20T12:35:05;1.42;;;0.52;;
31262;SDS011;17892;52.080;9.006;2023-07-20T12:37:31;1.73;;;0.55;;
31262;SDS011;17892;52.080;9.006;2023-07-20T12:39:57;1.42;;;0.60;;
31262;SDS011;17892;52.080;9.006;2023-07-20T12:42:23;1.02;;;0.50;;
31262;SDS011;17892;52.080;9.006;2023-07-20T12:44:49;1.73;;;0.60;;
31262;SDS011;17892;52.080;9.006;2023-07-20T12:47:16;1.25;;;0.40;;
31262;SDS011;17892;52.080;9.006;2023-07-20T12:49:43;1.20;;;0.43;;
31262;SDS011;17892;52.080;9.006;2023-07-20T12:52:12;0.68;;;0.40;;
31262;SDS011;17892;52.080;9.006;2023-07-20T12:54:38;0.70;;;0.50;;
31262;SDS011;17892;52.080;9.006;2023-07-20T12:57:04;1.60;;;0.50;;
31262;SDS011;17892;52.080;9.006;2023-07-20T12:59:30;0.98;;;0.50;;
31262;SDS011;17892;52.080;9.006;2023-07-20T13:01:56;1.45;;;0.50;;
31262;SDS011;17892;52.080;9.006;2023-07-20T13:04:21;2.17;;;0.70;;
31262;SDS011;17892;52.080;9.006;2023-07-20T13:06:47;1.48;;;0.60;;
31262;SDS011;17892;52.080;9.006;2023-07-20T13:09:13;1.40;;;0.50;;
31262;SDS011;17892;52.080;9.006;2023-07-20T13:11:38;1.20;;;0.50;;
31262;SDS011;17892;52.080;9.006;2023-07-20T13:14:04;1.48;;;0.70;;
31262;SDS011;17892;52.080;9.006;2023-07-20T13:16:30;3.53;;;0.70;;
31262;SDS011;17892;52.080;9.006;2023-07-20T13:18:55;0.80;;;0.47;;
31262;SDS011;17892;52.080;9.006;2023-07-20T13:21:21;1.40;;;0.57;;
31262;SDS011;17892;52.080;9.006;2023-07-20T13:23:48;0.80;;;0.50;;
31262;SDS011;17892;52.080;9.006;2023-07-20T13:26:14;1.17;;;0.57;;
31262;SDS011;17892;52.080;9.006;2023-07-20T13:28:41;3.72;;;0.50;;
31262;SDS011;17892;52.080;9.006;2023-07-20T13:31:07;0.93;;;0.50;;
31262;SDS011;17892;52.080;9.006;2023-07-20T13:33:35;1.20;;;0.50;;
31262;SDS011;17892;52.080;9.006;2023-07-20T13:36:01;1.05;;;0.50;;
31262;SDS011;17892;52.080;9.006;2023-07-20T13:38:26;0.77;;;0.50;;
31262;SDS011;17892;52.080;9.006;2023-07-20T13:40:52;2.20;;;0.60;;
31262;SDS011;17892;52.080;9.006;2023-07-20T13:43:18;1.23;;;0.60;;
31262;SDS011;17892;52.080;9.006;2023-07-20T13:45:44;1.55;;;0.60;;
31262;SDS011;17892;52.080;9.006;2023-07-20T13:48:09;1.13;;;0.70;;
31262;SDS011;17892;52.080;9.006;2023-07-20T13:50:35;1.30;;;0.70;;
31262;SDS011;17892;52.080;9.006;2023-07-20T13:53:01;1.63;;;0.70;;
31262;SDS011;17892;52.080;9.006;2023-07-20T13:55:28;1.13;;;0.73;;
31262;SDS011;17892;52.080;9.006;2023-07-20T13:57:56;1.00;;;0.70;;
31262;SDS011;17892;52.080;9.006;2023-07-20T14:00:21;1.80;;;0.90;;
31262;SDS011;17892;52.080;9.006;2023-07-20T14:02:47;1.80;;;1.10;;
31262;SDS011;17892;52.080;9.006;2023-07-20T14:05:13;2.17;;;1.05;;
31262;SDS011;17892;52.080;9.006;2023-07-20T14:07:40;1.95;;;1.20;;
31262;SDS011;17892;52.080;9.006;2023-07-20T14:10:07;2.03;;;1.15;;
31262;SDS011;17892;52.080;9.006;2023-07-20T14:12:32;2.17;;;1.38;;
31262;SDS011;17892;52.080;9.006;2023-07-20T14:14:58;1.83;;;1.40;;
31262;SDS011;17892;52.080;9.006;2023-07-20T14:17:24;1.83;;;1.45;;
31262;SDS011;17892;52.080;9.006;2023-07-20T14:19:50;1.70;;;1.13;;
31262;SDS011;17892;52.080;9.006;2023-07-20T14:22:18;1.95;;;1.50;;
31262;SDS011;17892;52.080;9.006;2023-07-20T14:24:44;1.92;;;1.02;;
31262;SDS011;17892;52.080;9.006;2023-07-20T14:27:09;2.20;;;1.70;;
31262;SDS011;17892;52.080;9.006;2023-07-20T14:29:36;2.33;;;1.63;;
31262;SDS011;17892;52.080;9.006;2023-07-20T14:32:01;2.05;;;1.60;;
31262;SDS011;17892;52.080;9.006;2023-07-20T14:34:31;1.80;;;1.30;;
31262;SDS011;17892;52.080;9.006;2023-07-20T14:36:58;1.95;;;1.33;;
31262;SDS011;17892;52.080;9.006;2023-07-20T14:39:25;1.95;;;1.48;;
31262;SDS011;17892;52.080;9.006;2023-07-20T14:41:50;2.83;;;1.45;;
31262;SDS011;17892;52.080;9.006;2023-07-20T14:44:16;2.30;;;1.63;;
31262;SDS011;17892;52.080;9.006;2023-07-20T14:46:42;2.20;;;1.25;;
31262;SDS011;17892;52.080;9.006;2023-07-20T14:49:08;1.80;;;1.20;;
31262;SDS011;17892;52.080;9.006;2023-07-20T14:51:35;2.03;;;1.00;;
31262;SDS011;17892;52.080;9.006;2023-07-20T14:54:07;1.75;;;1.10;;
31262;SDS011;17892;52.080;9.006;2023-07-20T14:56:34;1.48;;;1.05;;
31262;SDS011;17892;52.080;9.006;2023-07-20T14:58:59;1.42;;;0.82;;
31262;SDS011;17892;52.080;9.006;2023-07-20T15:01:25;1.60;;;1.00;;
31262;SDS011;17892;52.080;9.006;2023-07-20T15:03:51;1.73;;;0.85;;
31262;SDS011;17892;52.080;9.006;2023-07-20T15:06:18;1.30;;;0.77;;